Time;durP1;ratioP1;P1;durP2;ratioP2;P2;SDS_P1;SDS_P2;PMS_P1;PMS_P2;Temp;Humidity;BMP_temperature;BMP_pressure;BME280_temperature;BME280_humidity;BME280_pressure;Samples;Min_cycle;Max_cycle;Signal;HPM_P1;HPM_P2
2023/03/18 00:01:16;;;;;;;3.10;1.10;;;11.10;49.50;;;;;;6063075;23;20198;-77
2023/03/18 00:03:45;;;;;;;3.70;1.38;;;11.00;49.00;;;;;;6063085;23;20766;-78
2023/03/18 00:06:17;;;;;;;4.43;1.40;;;11.00;49.10;;;;;;6063076;23;20179;-78
2023/03/18 00:08:48;;;;;;;5.27;1.20;;;11.00;49.20;;;;;;6060727;23;20214;-77
2023/03/18 00:11:18;;;;;;;2.83;1.33;;;11.00;49.20;;;;;;6062793;23;20190;-78
2023/03/18 00:13:48;;;;;;;2.57;1.30;;;11.00;49.10;;;;;;6066849;23;20187;-78
2023/03/18 00:16:17;;;;;;;2.27;0.90;;;11.00;49.30;;;;;;6067830;23;20238;-77
2023/03/18 00:18:45;;;;;;;5.13;1.60;;;11.00;49.50;;;;;;6065901;23;20178;-79
2023/03/18 00:21:15;;;;;;;5.83;1.43;;;11.00;48.70;;;;;;6066643;23;20234;-80
2023/03/18 00:23:44;;;;;;;4.00;1.23;;;10.90;48.80;;;;;;6065725;23;20182;-79
2023/03/18 00:26:14;;;;;;;3.10;1.00;;;10.90;48.60;;;;;;6065160;23;20182;-78
2023/03/18 00:28:43;;;;;;;4.07;1.20;;;10.90;48.30;;;;;;6063785;23;20181;-78
2023/03/18 00:31:12;;;;;;;4.20;1.30;;;10.90;48.60;;;;;;6065678;23;20696;-79
2023/03/18 00:33:44;;;;;;;3.87;1.20;;;10.90;48.80;;;;;;6066420;23;20178;-79
2023/03/18 00:36:14;;;;;;;3.70;1.50;;;10.90;48.70;;;;;;6067544;23;20159;-78
2023/03/18 00:38:44;;;;;;;4.40;1.20;;;10.90;48.60;;;;;;6066193;23;20190;-78
2023/03/18 00:41:15;;;;;;;3.43;1.37;;;10.90;48.80;;;;;;6068260;23;20167;-78
2023/03/18 00:43:51;;;;;;;2.53;1.10;;;10.90;48.50;;;;;;6068414;23;20154;-78
2023/03/18 00:46:23;;;;;;;2.73;1.10;;;10.90;48.80;;;;;;6067040;23;20178;-76
2023/03/18 00:48:53;;;;;;;4.70;1.23;;;10.90;48.50;;;;;;6065734;23;20162;-78
2023/03/18 00:51:23;;;;;;;4.17;1.50;;;10.90;48.80;;;;;;6067683;23;20178;-78
2023/03/18 00:53:54;;;;;;;3.87;1.27;;;10.80;49.10;;;;;;6067456;23;20239;-77
2023/03/18 00:56:28;;;;;;;1.97;1.10;;;10.80;49.50;;;;;;6065775;23;20222;-78
2023/03/18 00:58:57;;;;;;;4.20;1.50;;;10.80;49.30;;;;;;6064345;23;20214;-79
2023/03/18 01:01:26;;;;;;;4.07;1.20;;;10.80;49.50;;;;;;6066030;23;20234;-79
2023/03/18 01:03:55;;;;;;;3.63;1.10;;;10.80;49.50;;;;;;6066049;23;20911;-79
2023/03/18 01:06:27;;;;;;;2.93;1.00;;;10.80;49.50;;;;;;6065727;23;20210;-78
2023/03/18 01:08:57;;;;;;;3.00;1.17;;;10.80;49.70;;;;;;6062697;23;20463;-77
2023/03/18 01:11:27;;;;;;;2.57;1.13;;;10.80;49.90;;;;;;6064273;23;20204;-78
2023/03/18 01:13:56;;;;;;;1.63;1.10;;;10.80;50.10;;;;;;6063398;23;20182;-78
2023/03/18 01:16:24;;;;;;;2.40;1.00;;;10.70;49.80;;;;;;6066315;23;20632;-77
2023/03/18 01:18:53;;;;;;;3.67;1.63;;;10.70;49.70;;;;;;6066633;23;20629;-78
2023/03/18 01:21:22;;;;;;;3.20;1.10;;;10.70;49.80;;;;;;6066171;23;20182;-76
2023/03/18 01:23:50;;;;;;;6.17;1.53;;;10.80;49.60;;;;;;6066205;23;20190;-75
2023/03/18 01:26:19;;;;;;;3.03;1.10;;;10.70;49.10;;;;;;6066644;23;20178;-78
2023/03/18 01:28:49;;;;;;;6.00;1.90;;;10.70;49.10;;;;;;6064815;23;20194;-78
2023/03/18 01:31:17;;;;;;;7.17;1.37;;;10.70;49.40;;;;;;6065709;23;20178;-79
2023/03/18 01:33:46;;;;;;;4.73;1.30;;;10.70;49.40;;;;;;6066167;23;20182;-78
2023/03/18 01:36:14;;;;;;;3.87;1.37;;;10.70;48.90;;;;;;6065930;23;20182;-79
2023/03/18 01:38:43;;;;;;;4.47;1.03;;;10.70;49.20;;;;;;6065591;23;20174;-77
2023/03/18 01:41:12;;;;;;;3.07;1.30;;;10.70;49.30;;;;;;6065346;23;20233;-77
2023/03/18 01:43:42;;;;;;;2.13;1.17;;;10.60;49.30;;;;;;6066527;23;20194;-77
2023/03/18 01:46:46;;;;;;;3.90;1.20;;;10.60;49.30;;;;;;6065017;23;20605;-78
2023/03/18 01:49:17;;;;;;;3.00;1.47;;;10.70;49.50;;;;;;5949125;24;20725;-77
2023/03/18 01:51:50;;;;;;;6.17;1.57;;;10.70;49.70;;;;;;5950050;24;20729;-78
2023/03/18 01:54:19;;;;;;;4.27;1.50;;;10.60;49.40;;;;;;6013034;23;20190;-79
2023/03/18 01:56:50;;;;;;;2.50;1.10;;;10.60;49.40;;;;;;6067449;23;20747;-79
2023/03/18 01:59:21;;;;;;;3.10;1.20;;;10.70;49.70;;;;;;6067064;23;20183;-79
2023/03/18 02:01:55;;;;;;;2.50;1.23;;;10.70;49.70;;;;;;6064593;23;20202;-79
2023/03/18 02:04:29;;;;;;;4.00;1.23;;;10.70;50.00;;;;;;6068671;23;20241;-79
2023/03/18 02:07:00;;;;;;;2.33;1.10;;;10.70;50.10;;;;;;6067330;23;20167;-79
2023/03/18 02:09:28;;;;;;;5.87;1.60;;;10.70;50.30;;;;;;6067934;23;20201;-79
2023/03/18 02:11:58;;;;;;;2.47;1.20;;;10.70;50.40;;;;;;6067002;23;20636;-79
2023/03/18 02:14:27;;;;;;;3.93;1.43;;;10.70;50.10;;;;;;6064927;23;20178;-77
2023/03/18 02:17:02;;;;;;;3.00;1.20;;;10.70;49.80;;;;;;6064692;23;20647;-78
2023/03/18 02:19:45;;;;;;;6.40;1.63;;;10.60;49.50;;;;;;6068265;23;20162;-79
2023/03/18 02:22:23;;;;;;;4.03;1.47;;;10.70;50.00;;;;;;6064902;23;20238;-78
2023/03/18 02:25:04;;;;;;;3.30;1.30;;;10.70;50.30;;;;;;6065704;23;20222;-79
2023/03/18 02:27:37;;;;;;;3.67;1.40;;;10.70;50.10;;;;;;6067220;23;20159;-78
2023/03/18 02:30:10;;;;;;;3.50;1.10;;;10.70;50.30;;;;;;6067911;23;20214;-77
2023/03/18 02:32:40;;;;;;;2.50;1.07;;;10.70;50.10;;;;;;6064707;23;20602;-78
2023/03/18 02:35:10;;;;;;;4.50;1.70;;;10.70;50.00;;;;;;6066952;23;20699;-79
2023/03/18 02:37:39;;;;;;;3.27;1.13;;;10.60;49.60;;;;;;6066370;23;20163;-78
2023/03/18 02:40:16;;;;;;;5.00;1.97;;;10.60;49.20;;;;;;6067099;23;20182;-79
2023/03/18 02:42:47;;;;;;;3.53;1.37;;;10.60;49.40;;;;;;6064063;23;20716;-76
2023/03/18 02:45:40;;;;;;;6.47;1.90;;;10.50;49.20;;;;;;6067281;23;20214;-78
2023/03/18 02:48:11;;;;;;;4.03;1.57;;;10.50;49.10;;;;;;6066097;23;20163;-78
2023/03/18 02:50:39;;;;;;;4.00;1.70;;;10.40;49.20;;;;;;6068196;23;20230;-78
2023/03/18 02:53:12;;;;;;;3.43;1.40;;;10.40;49.60;;;;;;6063404;23;20511;-78
2023/03/18 02:55:41;;;;;;;5.40;1.63;;;10.30;49.90;;;;;;6065591;23;20170;-78
2023/03/18 02:58:11;;;;;;;3.60;1.60;;;10.30;50.20;;;;;;6065480;23;20206;-79
2023/03/18 03:00:39;;;;;;;6.57;1.87;;;10.30;50.60;;;;;;6066229;23;20174;-78
2023/03/18 03:03:08;;;;;;;4.90;1.47;;;10.20;51.00;;;;;;6064145;23;20194;-77
2023/03/18 03:05:37;;;;;;;2.63;1.13;;;10.20;51.40;;;;;;6063901;23;20270;-79
2023/03/18 03:08:06;;;;;;;3.80;1.53;;;10.10;52.70;;;;;;6064582;23;20242;-78
2023/03/18 03:10:35;;;;;;;2.93;1.23;;;10.10;53.60;;;;;;6067408;23;20185;-77
2023/03/18 03:13:05;;;;;;;3.00;1.23;;;10.10;53.40;;;;;;6063191;23;20178;-79
2023/03/18 03:15:34;;;;;;;2.33;1.00;;;10.10;53.40;;;;;;6063957;23;20182;-79
2023/03/18 03:18:04;;;;;;;4.30;1.10;;;10.10;53.60;;;;;;6065713;23;20185;-79
2023/03/18 03:20:34;;;;;;;2.60;1.47;;;10.10;53.60;;;;;;6065854;23;20249;-75
2023/03/18 03:23:03;;;;;;;2.53;1.00;;;10.10;53.60;;;;;;6060244;23;20178;-78
2023/03/18 03:25:31;;;;;;;3.57;1.37;;;10.10;53.60;;;;;;6062523;23;20178;-78
2023/03/18 03:28:00;;;;;;;3.90;1.37;;;10.10;53.70;;;;;;6064150;23;20695;-78
2023/03/18 03:30:28;;;;;;;2.57;1.17;;;10.00;55.00;;;;;;6066478;23;20234;-78
2023/03/18 03:32:59;;;;;;;2.70;1.10;;;10.00;55.40;;;;;;6063285;23;20190;-77
2023/03/18 03:35:28;;;;;;;2.40;1.10;;;10.00;56.30;;;;;;6064407;23;20567;-79
2023/03/18 03:37:56;;;;;;;2.23;1.00;;;10.00;56.20;;;;;;6064617;23;20175;-79
2023/03/18 03:40:26;;;;;;;1.93;1.10;;;10.00;55.90;;;;;;6067758;23;20262;-78
2023/03/18 03:42:55;;;;;;;3.20;0.97;;;10.10;55.80;;;;;;6063098;23;20171;-78
2023/03/18 03:45:23;;;;;;;4.97;1.67;;;10.00;55.40;;;;;;6064594;23;20694;-77
2023/03/18 03:47:52;;;;;;;5.30;1.50;;;10.00;54.70;;;;;;6067411;23;20542;-78
2023/03/18 03:50:22;;;;;;;2.77;1.30;;;10.00;54.80;;;;;;6065053;23;20654;-78
2023/03/18 03:52:51;;;;;;;3.43;1.27;;;10.00;54.70;;;;;;6065697;23;20182;-79
2023/03/18 03:55:21;;;;;;;4.03;1.33;;;10.00;54.70;;;;;;6066945;23;20174;-79
2023/03/18 03:57:50;;;;;;;2.23;1.10;;;10.00;54.40;;;;;;6062349;23;20206;-77
2023/03/18 04:00:20;;;;;;;5.93;1.60;;;10.00;54.40;;;;;;6065556;23;20178;-78
2023/03/18 04:02:50;;;;;;;3.90;1.10;;;10.00;54.50;;;;;;6065780;23;20163;-79
2023/03/18 04:05:21;;;;;;;4.30;1.40;;;9.90;54.30;;;;;;6065254;23;20198;-78
2023/03/18 04:07:52;;;;;;;2.60;1.20;;;10.00;54.50;;;;;;6066232;23;20178;-80
2023/03/18 04:10:21;;;;;;;5.27;1.40;;;10.00;54.80;;;;;;6067973;23;20159;-78
2023/03/18 04:12:50;;;;;;;5.77;1.70;;;10.00;54.80;;;;;;6068030;23;20175;-79
2023/03/18 04:15:20;;;;;;;4.83;1.50;;;10.10;54.80;;;;;;6068360;23;20174;-78
2023/03/18 04:17:49;;;;;;;4.30;1.30;;;10.10;54.90;;;;;;6066499;23;20669;-79
2023/03/18 04:20:18;;;;;;;2.27;1.27;;;10.10;54.90;;;;;;6066371;23;20551;-78
2023/03/18 04:22:47;;;;;;;3.67;1.50;;;10.20;55.00;;;;;;6066714;23;20178;-80
2023/03/18 04:25:16;;;;;;;6.00;1.93;;;10.20;55.00;;;;;;6067372;23;20202;-78
2023/03/18 04:27:45;;;;;;;5.30;1.23;;;10.20;55.10;;;;;;6068553;23;20178;-78
2023/03/18 04:30:14;;;;;;;5.23;1.60;;;10.20;55.30;;;;;;6067698;23;20617;-79
2023/03/18 04:32:42;;;;;;;9.37;1.80;;;10.20;55.20;;;;;;6066217;23;20178;-78
2023/03/18 04:35:11;;;;;;;3.63;1.50;;;10.30;55.20;;;;;;6068023;23;20217;-78
2023/03/18 04:37:39;;;;;;;3.13;1.53;;;10.30;55.00;;;;;;6066959;23;20699;-78
2023/03/18 04:40:10;;;;;;;2.10;1.30;;;10.30;54.60;;;;;;6066917;23;20250;-78
2023/03/18 04:42:41;;;;;;;4.93;1.93;;;10.30;54.60;;;;;;6067456;23;20158;-78
2023/03/18 04:45:10;;;;;;;3.83;1.87;;;10.30;54.70;;;;;;6065638;23;20179;-79
2023/03/18 04:47:39;;;;;;;5.30;1.67;;;10.30;54.80;;;;;;6066440;23;20179;-78
2023/03/18 04:50:09;;;;;;;3.90;1.87;;;10.30;55.00;;;;;;6068236;23;20266;-78
2023/03/18 04:52:38;;;;;;;4.07;2.10;;;10.30;55.20;;;;;;6067459;23;20554;-78
2023/03/18 04:55:08;;;;;;;5.47;2.53;;;10.40;55.30;;;;;;6066610;23;20182;-78
2023/03/18 04:57:37;;;;;;;4.90;1.70;;;10.40;56.20;;;;;;5990420;23;20687;-78
2023/03/18 05:00:10;;;;;;;8.03;2.00;;;10.40;55.20;;;;;;6065177;23;20205;-78
2023/03/18 05:02:39;;;;;;;4.13;1.47;;;10.40;55.00;;;;;;6060631;23;20166;-78
2023/03/18 05:05:08;;;;;;;5.93;1.50;;;10.40;55.20;;;;;;6067083;23;20195;-78
2023/03/18 05:07:37;;;;;;;5.33;1.70;;;10.40;55.10;;;;;;6064809;23;20238;-78
2023/03/18 05:10:06;;;;;;;4.73;1.57;;;10.50;55.20;;;;;;6067191;23;20178;-78
2023/03/18 05:12:35;;;;;;;4.90;1.60;;;10.50;55.10;;;;;;6065721;23;20234;-79
2023/03/18 05:15:04;;;;;;;6.83;1.97;;;10.60;55.10;;;;;;6066469;23;20206;-78
2023/03/18 05:17:34;;;;;;;4.00;1.30;;;10.60;55.10;;;;;;6065560;23;20214;-78
2023/03/18 05:20:03;;;;;;;5.77;1.70;;;10.60;55.10;;;;;;6066201;23;20636;-79
2023/03/18 05:22:31;;;;;;;4.23;1.50;;;10.70;55.00;;;;;;6066459;23;20197;-77
2023/03/18 05:25:00;;;;;;;2.37;1.50;;;10.70;54.80;;;;;;6064543;23;20195;-78
2023/03/18 05:27:28;;;;;;;5.03;2.23;;;10.80;54.50;;;;;;6065275;23;20178;-78
2023/03/18 05:29:57;;;;;;;8.27;2.03;;;10.80;54.40;;;;;;6067096;23;20517;-78
2023/03/18 05:32:25;;;;;;;9.87;3.47;;;10.90;53.90;;;;;;6066569;23;20178;-78
2023/03/18 05:34:55;;;;;;;6.77;2.70;;;10.90;54.20;;;;;;6065981;23;20181;-79
2023/03/18 05:37:24;;;;;;;7.47;2.20;;;10.90;54.50;;;;;;6063728;23;20178;-78
2023/03/18 05:39:52;;;;;;;10.53;2.80;;;10.90;54.70;;;;;;6065883;23;20182;-78
2023/03/18 05:42:21;;;;;;;7.17;2.33;;;11.00;54.80;;;;;;6065921;23;20548;-78
2023/03/18 05:44:49;;;;;;;5.60;2.47;;;11.00;54.90;;;;;;6063378;23;20282;-77
2023/03/18 05:47:18;;;;;;;8.00;2.97;;;11.00;55.00;;;;;;6065364;23;20183;-78
2023/03/18 05:49:47;;;;;;;7.10;2.90;;;11.10;55.00;;;;;;6065693;23;20191;-79
2023/03/18 05:52:16;;;;;;;6.00;2.60;;;11.10;54.90;;;;;;6067039;23;20230;-79
2023/03/18 05:54:45;;;;;;;6.47;2.43;;;11.10;55.00;;;;;;6067230;23;20175;-79
2023/03/18 05:57:14;;;;;;;8.47;2.63;;;11.10;54.70;;;;;;6065727;23;20737;-78
2023/03/18 05:59:42;;;;;;;6.17;2.07;;;11.10;53.80;;;;;;6066992;23;20178;-78
2023/03/18 06:02:11;;;;;;;4.40;1.63;;;11.10;54.00;;;;;;6065328;23;20237;-79
2023/03/18 06:04:40;;;;;;;5.07;1.83;;;11.20;54.10;;;;;;6066333;23;20198;-79
2023/03/18 06:07:08;;;;;;;7.67;2.70;;;11.20;53.70;;;;;;6067902;23;20454;-77
2023/03/18 06:09:38;;;;;;;6.07;2.50;;;11.20;53.70;;;;;;6065814;23;20644;-78
2023/03/18 06:12:07;;;;;;;5.17;1.87;;;11.20;53.60;;;;;;6068473;23;20175;-78
2023/03/18 06:14:36;;;;;;;7.83;2.20;;;11.30;53.60;;;;;;6067380;23;20516;-78
2023/03/18 06:17:05;;;;;;;7.97;2.13;;;11.30;53.50;;;;;;6065960;23;20175;-78
2023/03/18 06:19:34;;;;;;;5.77;1.90;;;11.30;52.40;;;;;;6067046;23;20186;-76
2023/03/18 06:22:02;;;;;;;5.47;1.80;;;11.30;52.20;;;;;;6068244;23;20196;-78
2023/03/18 06:24:31;;;;;;;4.93;1.80;;;11.30;52.60;;;;;;6068335;23;20175;-78
2023/03/18 06:27:01;;;;;;;4.67;1.40;;;11.40;53.00;;;;;;6067101;23;20628;-78
2023/03/18 06:29:30;;;;;;;3.73;1.87;;;11.40;52.70;;;;;;6064518;23;20214;-78
2023/03/18 06:31:59;;;;;;;5.60;1.90;;;11.40;52.00;;;;;;6065149;23;20553;-78
2023/03/18 06:34:27;;;;;;;4.67;1.67;;;11.40;52.60;;;;;;6066039;23;20178;-79
2023/03/18 06:36:56;;;;;;;9.17;2.20;;;11.50;53.10;;;;;;6067583;23;20178;-78
2023/03/18 06:39:25;;;;;;;5.63;1.87;;;11.50;53.30;;;;;;6066879;23;20174;-78
2023/03/18 06:41:53;;;;;;;7.50;2.27;;;11.50;53.00;;;;;;6066383;23;20206;-77
2023/03/18 06:44:24;;;;;;;3.33;1.20;;;11.60;53.10;;;;;;6067928;23;20178;-78
2023/03/18 06:46:52;;;;;;;4.50;1.80;;;11.60;52.70;;;;;;6065581;23;20186;-79
2023/03/18 06:49:21;;;;;;;4.73;1.60;;;11.60;52.20;;;;;;6066698;23;20178;-78
2023/03/18 06:51:49;;;;;;;4.80;1.60;;;11.60;51.60;;;;;;6066976;23;20178;-78
2023/03/18 06:54:19;;;;;;;5.77;1.80;;;11.60;51.80;;;;;;6065419;23;20372;-78
2023/03/18 06:56:47;;;;;;;9.70;2.20;;;11.60;51.80;;;;;;6064893;23;20202;-78
2023/03/18 06:59:15;;;;;;;5.57;1.70;;;11.70;52.00;;;;;;6068079;23;20218;-78
2023/03/18 07:01:46;;;;;;;5.90;1.90;;;11.70;52.20;;;;;;6064738;23;20178;-78
2023/03/18 07:04:14;;;;;;;2.97;1.67;;;11.70;52.40;;;;;;6064381;23;20171;-79
2023/03/18 07:06:43;;;;;;;4.30;1.83;;;11.80;52.50;;;;;;6066397;23;20198;-78
2023/03/18 07:09:14;;;;;;;8.27;1.90;;;11.80;52.60;;;;;;6067612;23;20632;-78
2023/03/18 07:11:43;;;;;;;3.73;1.50;;;11.80;51.80;;;;;;6066000;23;20167;-77
2023/03/18 07:14:13;;;;;;;9.17;2.27;;;11.80;51.50;;;;;;6066151;23;20632;-77
2023/03/18 07:16:42;;;;;;;4.63;1.50;;;11.90;51.70;;;;;;6066631;23;20525;-78
2023/03/18 07:19:12;;;;;;;3.73;1.57;;;11.90;51.20;;;;;;6064841;23;20179;-77
2023/03/18 07:21:41;;;;;;;5.93;2.17;;;11.90;51.20;;;;;;6067561;23;20178;-78
2023/03/18 07:24:11;;;;;;;6.03;1.80;;;12.00;51.10;;;;;;6064904;23;20182;-78
2023/03/18 07:26:40;;;;;;;5.43;2.27;;;12.00;51.30;;;;;;6066994;23;20569;-77
2023/03/18 07:29:09;;;;;;;5.73;1.90;;;12.00;51.40;;;;;;6066870;23;20178;-77
2023/03/18 07:31:37;;;;;;;4.50;1.83;;;12.10;51.30;;;;;;6066511;23;20180;-77
2023/03/18 07:34:06;;;;;;;4.27;1.90;;;12.10;51.30;;;;;;6065570;23;20700;-78
2023/03/18 07:36:37;;;;;;;6.13;1.73;;;12.20;51.50;;;;;;6067048;23;20498;-79
2023/03/18 07:39:05;;;;;;;3.87;1.70;;;12.20;51.40;;;;;;6065046;23;20174;-79
2023/03/18 07:41:34;;;;;;;5.63;1.63;;;12.30;51.40;;;;;;6066486;23;20230;-78
2023/03/18 07:44:05;;;;;;;3.33;1.60;;;12.40;51.10;;;;;;6066596;23;20170;-76
2023/03/18 07:46:34;;;;;;;4.60;1.73;;;12.40;51.10;;;;;;6064953;23;20701;-77
2023/03/18 07:49:02;;;;;;;3.00;1.70;;;12.50;50.60;;;;;;6064030;23;20192;-77
2023/03/18 07:51:31;;;;;;;4.60;1.77;;;12.60;50.40;;;;;;6065511;23;20249;-78
2023/03/18 07:54:02;;;;;;;5.90;1.77;;;12.70;50.40;;;;;;6063905;23;20167;-77
2023/03/18 07:56:31;;;;;;;3.70;1.57;;;12.70;50.10;;;;;;6066330;23;20528;-78
2023/03/18 07:58:59;;;;;;;8.10;1.73;;;12.80;49.50;;;;;;6065700;23;20233;-78
2023/03/18 08:01:30;;;;;;;3.63;1.67;;;12.80;48.80;;;;;;6065654;23;20178;-78
2023/03/18 08:03:58;;;;;;;4.87;1.50;;;12.80;48.00;;;;;;6066634;23;20162;-79
2023/03/18 08:06:26;;;;;;;5.60;1.93;;;12.90;48.60;;;;;;6066073;23;20195;-79
2023/03/18 08:08:55;;;;;;;4.50;1.40;;;12.90;48.90;;;;;;6064491;23;20180;-79
2023/03/18 08:11:25;;;;;;;4.43;1.80;;;13.00;49.00;;;;;;6064776;23;20178;-78
2023/03/18 08:13:53;;;;;;;6.67;2.00;;;13.00;49.00;;;;;;6067695;23;20181;-78
2023/03/18 08:16:21;;;;;;;4.37;1.83;;;13.00;49.60;;;;;;6064841;23;20170;-79
2023/03/18 08:18:50;;;;;;;3.43;1.57;;;13.10;49.90;;;;;;6064859;23;20178;-77
2023/03/18 08:21:18;;;;;;;5.60;1.90;;;13.10;50.50;;;;;;6066795;23;20179;-78
2023/03/18 08:23:47;;;;;;;4.33;1.73;;;13.10;49.90;;;;;;6066972;23;20178;-78
2023/03/18 08:26:15;;;;;;;6.20;2.47;;;13.20;50.30;;;;;;6064930;23;20190;-77
2023/03/18 08:28:45;;;;;;;4.73;2.23;;;13.20;51.00;;;;;;6065973;23;20230;-78
2023/03/18 08:31:14;;;;;;;4.40;2.10;;;13.30;50.30;;;;;;6065491;23;20237;-79
2023/03/18 08:33:42;;;;;;;3.83;1.60;;;13.30;50.40;;;;;;6065781;23;20637;-79
2023/03/18 08:36:11;;;;;;;3.37;1.70;;;13.40;50.10;;;;;;6066113;23;20174;-80
2023/03/18 08:38:39;;;;;;;5.37;1.90;;;13.40;50.20;;;;;;6064375;23;20632;-79
2023/03/18 08:41:08;;;;;;;5.07;1.90;;;13.50;49.90;;;;;;6067216;23;20178;-79
2023/03/18 08:43:37;;;;;;;5.03;2.07;;;13.50;49.50;;;;;;6067330;23;20249;-78
2023/03/18 08:46:08;;;;;;;4.37;1.90;;;13.60;49.70;;;;;;6065289;23;20198;-80
2023/03/18 08:48:36;;;;;;;9.03;2.30;;;13.70;49.50;;;;;;6062103;23;20159;-76
2023/03/18 08:51:07;;;;;;;5.50;2.60;;;13.60;48.60;;;;;;6064612;23;20233;-79
2023/03/18 08:53:35;;;;;;;5.97;2.00;;;13.60;48.70;;;;;;6065027;23;20190;-81
2023/03/18 08:56:05;;;;;;;3.20;1.77;;;13.70;49.20;;;;;;6060282;23;20624;-79
2023/03/18 08:58:34;;;;;;;5.17;1.70;;;13.70;49.40;;;;;;6064071;23;20202;-80
2023/03/18 09:01:04;;;;;;;5.07;1.73;;;13.80;49.20;;;;;;6065323;23;20178;-82
2023/03/18 09:03:35;;;;;;;5.97;1.90;;;13.80;48.70;;;;;;6066709;23;20201;-79
2023/03/18 09:06:04;;;;;;;5.57;1.87;;;13.90;49.70;;;;;;6065314;23;20163;-80
2023/03/18 09:08:33;;;;;;;4.87;1.77;;;13.90;49.70;;;;;;6066475;23;20265;-79
2023/03/18 09:11:01;;;;;;;4.80;2.37;;;13.90;48.60;;;;;;6064847;23;20175;-80
2023/03/18 09:13:29;;;;;;;4.30;1.60;;;14.00;48.40;;;;;;6066587;23;20643;-80
2023/03/18 09:15:58;;;;;;;5.20;1.83;;;14.00;48.70;;;;;;6066817;23;20178;-79
2023/03/18 09:18:26;;;;;;;4.90;1.60;;;14.10;49.10;;;;;;6067197;23;20175;-80
2023/03/18 09:20:56;;;;;;;6.63;2.00;;;14.10;49.10;;;;;;6065127;23;20446;-79
2023/03/18 09:23:25;;;;;;;5.27;1.97;;;14.20;49.60;;;;;;6067008;23;20249;-80
2023/03/18 09:25:53;;;;;;;4.93;1.97;;;14.30;49.70;;;;;;6064247;23;20183;-78
2023/03/18 09:28:22;;;;;;;5.83;2.43;;;14.30;49.60;;;;;;6064632;23;20246;-78
2023/03/18 09:30:50;;;;;;;6.17;2.00;;;14.30;49.70;;;;;;6066545;23;20186;-79
2023/03/18 09:33:19;;;;;;;4.87;1.73;;;14.30;49.10;;;;;;6067100;23;20544;-79
2023/03/18 09:35:48;;;;;;;3.47;1.77;;;14.40;49.50;;;;;;6066036;23;20182;-79
2023/03/18 09:38:19;;;;;;;6.27;1.90;;;14.40;49.00;;;;;;6065897;23;20225;-77
2023/03/18 09:40:59;;;;;;;9.00;2.23;;;14.50;49.30;;;;;;6066024;23;20505;-79
2023/03/18 09:43:40;;;;;;;3.73;1.70;;;14.50;49.40;;;;;;6069259;23;20214;-79
2023/03/18 09:46:16;;;;;;;3.20;1.80;;;14.50;49.10;;;;;;6067157;23;20163;-77
2023/03/18 09:49:13;;;;;;;5.40;1.50;;;14.50;49.30;;;;;;6068277;23;20168;-78
2023/03/18 09:52:01;;;;;;;7.20;2.40;;;14.50;49.20;;;;;;6067476;23;20218;-79
2023/03/18 09:54:38;;;;;;;3.90;1.90;;;14.40;49.10;;;;;;6066412;23;20159;-78
2023/03/18 09:57:13;;;;;;;6.07;2.00;;;14.40;49.50;;;;;;6065119;23;20213;-76
2023/03/18 09:59:45;;;;;;;3.00;1.77;;;14.50;48.90;;;;;;6067195;23;20237;-78
2023/03/18 10:02:22;;;;;;;4.27;1.60;;;14.50;48.90;;;;;;6067253;23;20182;-79
2023/03/18 10:04:56;;;;;;;4.50;2.03;;;14.50;48.60;;;;;;6065318;23;20158;-77
2023/03/18 10:07:29;;;;;;;3.93;1.73;;;14.60;48.50;;;;;;6064915;23;20186;-78
2023/03/18 10:10:05;;;;;;;5.90;1.80;;;14.60;48.40;;;;;;6066132;23;20158;-80
2023/03/18 10:12:36;;;;;;;3.87;1.70;;;14.60;48.70;;;;;;6067847;23;20608;-79
2023/03/18 10:15:13;;;;;;;8.03;2.03;;;14.70;48.70;;;;;;6066392;23;20218;-80
2023/03/18 10:17:44;;;;;;;6.20;1.87;;;14.80;48.90;;;;;;6067492;23;20242;-80
2023/03/18 10:20:18;;;;;;;4.23;2.00;;;14.80;48.60;;;;;;6065955;23;20605;-80
2023/03/18 10:23:12;;;;;;;3.03;1.70;;;14.80;47.30;;;;;;6067226;23;20179;-80
2023/03/18 10:25:51;;;;;;;4.03;1.77;;;14.90;47.90;;;;;;6053271;23;20189;-79
2023/03/18 10:29:02;;;;;;;7.00;2.90;;;14.90;47.60;;;;;;6064503;23;20182;-80
2023/03/18 10:31:45;;;;;;;4.40;1.93;;;14.90;47.60;;;;;;6035525;23;20557;-79
2023/03/18 10:34:16;;;;;;;5.43;2.23;;;14.90;48.10;;;;;;6063788;23;20179;-78
2023/03/18 10:36:51;;;;;;;5.13;1.83;;;14.90;48.00;;;;;;6064943;23;20565;-79
2023/03/18 10:39:24;;;;;;;8.23;2.20;;;14.90;47.60;;;;;;6066547;23;20159;-80
2023/03/18 10:42:19;;;;;;;4.37;1.70;;;14.90;47.60;;;;;;6066649;23;20268;-79
2023/03/18 10:44:48;;;;;;;6.83;1.77;;;14.90;47.30;;;;;;6065226;23;20167;-80
2023/03/18 10:50:17;;;;;;;3.43;1.80;;;15.00;48.10;;;;;;6065947;23;20154;-79
2023/03/18 10:52:53;;;;;;;5.23;2.20;;;15.10;47.90;;;;;;6063560;23;20159;-79
2023/03/18 10:55:29;;;;;;;6.17;1.87;;;15.20;47.80;;;;;;6062826;23;20177;-79
2023/03/18 10:58:00;;;;;;;5.27;1.87;;;15.20;47.40;;;;;;6064043;23;20499;-80
2023/03/18 11:00:31;;;;;;;5.47;2.00;;;15.30;47.40;;;;;;6065294;23;20169;-80
2023/03/18 11:03:01;;;;;;;6.93;2.40;;;15.30;47.20;;;;;;6065491;23;20167;-79
2023/03/18 11:05:33;;;;;;;6.00;1.97;;;15.40;47.70;;;;;;6065186;23;20230;-80
2023/03/18 11:08:05;;;;;;;4.93;1.90;;;15.40;47.50;;;;;;6065599;23;20186;-81
2023/03/18 11:10:35;;;;;;;5.37;1.93;;;15.40;47.30;;;;;;6064666;23;20608;-79
2023/03/18 11:13:05;;;;;;;4.13;1.80;;;15.30;46.70;;;;;;6066394;23;20162;-80
2023/03/18 11:15:38;;;;;;;17.88;6.60;;;15.40;46.80;;;;;;6063341;23;20395;-79
2023/03/18 11:18:14;;;;;;;3.23;2.23;;;15.50;46.90;;;;;;6063967;23;20657;-80
2023/03/18 11:20:48;;;;;;;5.30;1.90;;;15.50;46.80;;;;;;6066161;23;20194;-80
2023/03/18 11:23:19;;;;;;;3.90;1.77;;;15.60;46.30;;;;;;6065098;23;20166;-78
2023/03/18 11:25:48;;;;;;;8.57;3.80;;;15.50;45.00;;;;;;6067526;23;20218;-79
2023/03/18 11:28:25;;;;;;;4.47;1.90;;;15.60;45.90;;;;;;6065614;23;20857;-79
2023/03/18 11:30:59;;;;;;;6.30;2.00;;;15.60;45.50;;;;;;6065233;23;20198;-80
2023/03/18 11:33:31;;;;;;;3.93;2.03;;;15.70;45.70;;;;;;6067122;23;20163;-78
2023/03/18 11:36:05;;;;;;;3.97;1.60;;;15.70;45.50;;;;;;6065837;23;20182;-78
2023/03/18 11:38:36;;;;;;;4.27;1.87;;;15.80;45.10;;;;;;6063272;23;20163;-78
2023/03/18 11:41:08;;;;;;;5.87;1.83;;;15.80;45.20;;;;;;6065233;23;20174;-79
2023/03/18 11:43:39;;;;;;;5.90;2.80;;;15.80;45.60;;;;;;6063003;23;20178;-77
2023/03/18 11:46:09;;;;;;;3.23;1.73;;;15.90;45.30;;;;;;6063605;23;20539;-78
2023/03/18 11:48:39;;;;;;;6.20;2.57;;;16.00;45.10;;;;;;6063707;23;20402;-79
2023/03/18 11:51:34;;;;;;;5.40;1.63;;;16.10;45.10;;;;;;6066555;23;20660;-78
2023/03/18 11:54:14;;;;;;;5.63;2.20;;;16.20;45.00;;;;;;6046764;23;20191;-79
2023/03/18 11:56:48;;;;;;;3.80;2.07;;;16.10;44.80;;;;;;6064575;23;20513;-78
2023/03/18 11:59:35;;;;;;;3.20;1.70;;;16.30;45.10;;;;;;6066114;23;20222;-78
2023/03/18 12:02:37;;;;;;;5.60;1.90;;;16.30;45.10;;;;;;6065846;23;20238;-79
2023/03/18 12:05:39;;;;;;;3.10;1.63;;;16.40;45.00;;;;;;6066369;23;20162;-79
2023/03/18 12:08:15;;;;;;;3.77;1.77;;;16.50;44.40;;;;;;6066286;23;20189;-80
2023/03/18 12:10:50;;;;;;;6.10;2.33;;;16.60;44.60;;;;;;6067200;23;20162;-77
2023/03/18 12:13:39;;;;;;;8.13;1.90;;;16.70;44.50;;;;;;6067240;23;20745;-79
2023/03/18 12:16:18;;;;;;;8.23;2.10;;;16.70;45.60;;;;;;6066677;23;20476;-80
2023/03/18 12:19:03;;;;;;;6.40;2.17;;;16.70;46.30;;;;;;6065933;23;20186;-80
2023/03/18 12:21:46;;;;;;;6.60;2.73;;;16.60;46.70;;;;;;6066611;23;20166;-80
2023/03/18 12:24:32;;;;;;;3.93;2.03;;;16.60;47.10;;;;;;6066713;23;20166;-81
2023/03/18 12:27:09;;;;;;;3.23;1.40;;;16.70;48.10;;;;;;6065477;23;20162;-79
2023/03/18 12:30:05;;;;;;;7.40;2.10;;;16.80;48.20;;;;;;6063439;23;20233;-80
2023/03/18 12:32:44;;;;;;;5.53;1.80;;;17.00;48.20;;;;;;6068080;23;20178;-80
2023/03/18 12:35:41;;;;;;;4.27;1.83;;;17.10;47.90;;;;;;6068524;23;20241;-78
2023/03/18 12:38:55;;;;;;;5.37;2.40;;;17.20;48.20;;;;;;6042106;23;20185;-79
2023/03/18 12:41:32;;;;;;;4.83;1.60;;;17.30;48.90;;;;;;6063184;23;20178;-79
2023/03/18 12:44:19;;;;;;;5.43;1.43;;;17.40;49.20;;;;;;6062547;23;20162;-78
2023/03/18 12:47:00;;;;;;;3.47;1.40;;;17.50;49.60;;;;;;6062328;23;20162;-78
2023/03/18 12:49:34;;;;;;;3.17;1.70;;;17.60;49.70;;;;;;6064378;23;20656;-79
2023/03/18 12:52:06;;;;;;;4.17;2.10;;;17.60;50.00;;;;;;6063954;23;20159;-78
2023/03/18 12:54:42;;;;;;;3.60;1.70;;;17.70;50.80;;;;;;6066037;23;20193;-79
2023/03/18 12:57:15;;;;;;;2.27;1.30;;;18.00;50.10;;;;;;6065287;23;20265;-78
2023/03/18 12:59:48;;;;;;;4.00;1.43;;;18.10;49.90;;;;;;6065805;23;20163;-80
2023/03/18 13:02:36;;;;;;;2.60;1.40;;;18.10;49.60;;;;;;6065333;23;20261;-76
2023/03/18 13:05:17;;;;;;;5.73;1.73;;;18.20;49.40;;;;;;6064972;23;20246;-77
2023/03/18 13:07:49;;;;;;;2.97;1.50;;;18.10;49.20;;;;;;6064190;23;20162;-77
2023/03/18 13:10:22;;;;;;;4.73;1.50;;;18.00;49.20;;;;;;6067004;23;20211;-79
2023/03/18 13:12:54;;;;;;;3.10;1.60;;;17.90;49.30;;;;;;6064246;23;20162;-78
2023/03/18 13:15:30;;;;;;;5.07;1.70;;;17.90;49.30;;;;;;6063856;23;20162;-78